createdAt,value
2017-10-30T00:00:35.326Z,0
2017-10-30T00:01:36.935Z,0
2017-10-30T00:02:38.538Z,0
2017-10-30T00:03:40.146Z,0
2017-10-30T00:04:41.747Z,0
2017-10-30T00:05:43.358Z,0
2017-10-30T00:06:44.959Z,0
2017-10-30T00:07:46.566Z,0
2017-10-30T00:08:48.172Z,0
2017-10-30T00:09:49.773Z,0
2017-10-30T00:10:51.377Z,0
2017-10-30T00:11:52.985Z,0
2017-10-30T00:12:54.586Z,0
2017-10-30T00:13:56.193Z,0
2017-10-30T00:14:57.792Z,0
2017-10-30T00:15:59.402Z,0
2017-10-30T00:17:01.005Z,0
2017-10-30T00:18:02.615Z,0
2017-10-30T00:19:04.212Z,0
2017-10-30T00:20:05.824Z,0
2017-10-30T00:21:07.424Z,0
2017-10-30T00:22:09.032Z,0
2017-10-30T00:23:10.634Z,0
2017-10-30T00:24:12.239Z,0
2017-10-30T00:25:13.838Z,0
2017-10-30T00:26:15.447Z,0
2017-10-30T00:27:17.047Z,0
2017-10-30T00:28:18.655Z,0
2017-10-30T00:29:20.254Z,0
2017-10-30T00:30:21.860Z,0
2017-10-30T00:31:23.466Z,0
2017-10-30T00:32:25.069Z,0
2017-10-30T00:33:26.678Z,0
2017-10-30T00:34:28.280Z,0
2017-10-30T00:35:29.885Z,0
2017-10-30T00:36:31.483Z,0
2017-10-30T00:37:33.089Z,0
2017-10-30T00:38:34.691Z,0
2017-10-30T00:39:36.300Z,0
2017-10-30T00:40:37.900Z,0
2017-10-30T00:41:39.510Z,0
2017-10-30T00:42:41.110Z,0
2017-10-30T00:43:42.716Z,0
2017-10-30T00:44:44.314Z,0
2017-10-30T00:45:45.922Z,0
2017-10-30T00:46:47.520Z,0
2017-10-30T00:47:49.125Z,0
2017-10-30T00:48:50.735Z,0
2017-10-30T00:49:52.339Z,0
2017-10-30T00:50:53.941Z,0
2017-10-30T00:51:55.544Z,0
2017-10-30T00:52:57.153Z,0
2017-10-30T00:53:58.761Z,0
2017-10-30T00:55:00.362Z,0
2017-10-30T00:56:01.965Z,0
2017-10-30T00:57:03.574Z,0
2017-10-30T00:58:05.180Z,0
2017-10-30T00:59:06.778Z,0
2017-10-30T01:00:08.380Z,0
2017-10-30T01:01:09.986Z,0
2017-10-30T01:02:11.592Z,0
2017-10-30T01:03:13.194Z,0
2017-10-30T01:04:14.803Z,0
2017-10-30T01:05:16.402Z,0
2017-10-30T01:06:18.009Z,0
2017-10-30T01:07:19.613Z,0
2017-10-30T01:08:21.220Z,0
2017-10-30T01:09:22.821Z,0
2017-10-30T01:10:24.428Z,0
2017-10-30T01:11:26.035Z,0
2017-10-30T01:12:27.640Z,0
2017-10-30T01:13:29.243Z,0
2017-10-30T01:14:30.844Z,0
2017-10-30T01:15:32.453Z,0
2017-10-30T01:16:34.057Z,0
2017-10-30T01:17:35.657Z,0
2017-10-30T01:18:37.257Z,0
2017-10-30T01:19:38.864Z,0
2017-10-30T01:20:40.470Z,0
2017-10-30T01:21:42.071Z,0
2017-10-30T01:22:43.679Z,0
2017-10-30T01:23:45.284Z,0
2017-10-30T01:24:46.893Z,0
2017-10-30T01:25:48.492Z,0
2017-10-30T01:26:50.100Z,0
2017-10-30T01:27:51.700Z,0
2017-10-30T01:28:53.299Z,0
2017-10-30T01:29:54.902Z,0
2017-10-30T01:30:56.505Z,0
2017-10-30T01:31:58.115Z,0
2017-10-30T01:32:59.721Z,0
2017-10-30T01:34:01.322Z,0
2017-10-30T01:35:02.925Z,0
2017-10-30T01:36:04.524Z,0
2017-10-30T01:37:06.126Z,0
2017-10-30T01:38:07.734Z,0
2017-10-30T01:39:09.338Z,0
2017-10-30T01:40:10.947Z,0
2017-10-30T01:41:12.543Z,0
2017-10-30T01:42:14.151Z,0
2017-10-30T01:43:15.754Z,0
2017-10-30T01:44:17.357Z,0
2017-10-30T01:45:18.976Z,0
2017-10-30T01:46:20.567Z,0
2017-10-30T01:47:22.166Z,0
2017-10-30T01:48:23.773Z,0
2017-10-30T01:49:25.378Z,0
2017-10-30T01:50:26.980Z,0
2017-10-30T01:51:28.580Z,0
2017-10-30T01:52:30.179Z,0
2017-10-30T01:53:31.786Z,0
2017-10-30T01:54:33.391Z,0
2017-10-30T01:55:34.998Z,0
2017-10-30T01:56:36.597Z,0
2017-10-30T01:57:38.205Z,0
2017-10-30T01:58:39.806Z,0
2017-10-30T01:59:41.411Z,0
2017-10-30T02:00:43.011Z,0
2017-10-30T02:01:44.615Z,0
2017-10-30T02:02:46.221Z,0
2017-10-30T02:03:47.820Z,0
2017-10-30T02:04:49.429Z,0
2017-10-30T02:05:51.027Z,0
2017-10-30T02:06:52.636Z,0
2017-10-30T02:07:54.237Z,0
2017-10-30T02:08:55.839Z,0
2017-10-30T02:09:57.446Z,0
2017-10-30T02:10:59.045Z,0
2017-10-30T02:12:00.647Z,0
2017-10-30T02:13:02.255Z,0
2017-10-30T02:14:03.863Z,0
2017-10-30T02:15:05.463Z,0
2017-10-30T02:16:07.067Z,0
2017-10-30T02:17:08.673Z,0
2017-10-30T02:18:10.279Z,0
2017-10-30T02:19:11.885Z,0
2017-10-30T02:20:13.494Z,0
2017-10-30T02:21:15.100Z,0
2017-10-30T02:22:16.700Z,0
2017-10-30T02:23:18.302Z,0
2017-10-30T02:24:19.910Z,0
2017-10-30T02:25:21.512Z,0
2017-10-30T02:26:23.121Z,0
2017-10-30T02:27:24.721Z,0
2017-10-30T02:28:26.329Z,0
2017-10-30T02:29:27.932Z,0
2017-10-30T02:30:29.537Z,0
2017-10-30T02:31:31.138Z,0
2017-10-30T02:32:32.744Z,0
2017-10-30T02:33:34.345Z,0
2017-10-30T02:34:35.951Z,0
2017-10-30T02:35:37.552Z,0
2017-10-30T02:36:39.156Z,0
2017-10-30T02:37:40.762Z,0
2017-10-30T02:38:42.371Z,0
2017-10-30T02:39:43.978Z,0
2017-10-30T02:40:45.583Z,0
2017-10-30T02:41:47.192Z,0
2017-10-30T02:42:48.788Z,0
2017-10-30T02:43:50.398Z,0
2017-10-30T02:44:51.998Z,0
2017-10-30T02:45:53.604Z,0
2017-10-30T02:46:55.203Z,0
2017-10-30T02:47:56.819Z,0
2017-10-30T02:48:58.413Z,0
2017-10-30T02:50:00.026Z,0
2017-10-30T02:51:01.632Z,0
2017-10-30T02:52:03.223Z,0
2017-10-30T02:53:04.822Z,0
2017-10-30T02:54:06.428Z,0
2017-10-30T02:55:08.035Z,0
2017-10-30T02:56:09.636Z,0
2017-10-30T02:57:11.244Z,0
2017-10-30T02:58:12.849Z,0
2017-10-30T02:59:14.453Z,0
2017-10-30T03:00:16.059Z,0
2017-10-30T03:01:17.657Z,0
2017-10-30T03:02:19.260Z,0
2017-10-30T03:03:20.869Z,0
2017-10-30T03:04:22.468Z,0
2017-10-30T03:05:24.075Z,0
2017-10-30T03:06:25.673Z,0
2017-10-30T03:07:27.279Z,0
2017-10-30T03:08:28.879Z,0
2017-10-30T03:09:30.481Z,0
2017-10-30T03:10:32.091Z,0
2017-10-30T03:11:33.697Z,0
2017-10-30T03:12:35.309Z,0
2017-10-30T03:13:36.900Z,0
2017-10-30T03:14:38.505Z,0
2017-10-30T03:15:40.141Z,0
2017-10-30T03:16:41.712Z,0
2017-10-30T03:17:43.313Z,0
2017-10-30T03:18:44.920Z,0
2017-10-30T03:19:46.521Z,0
2017-10-30T03:20:48.127Z,0
2017-10-30T03:21:49.728Z,0
2017-10-30T03:22:51.333Z,0
2017-10-30T03:23:52.940Z,0
2017-10-30T03:24:54.540Z,0
2017-10-30T03:25:56.148Z,0
2017-10-30T03:26:57.751Z,0
2017-10-30T03:27:59.361Z,0
2017-10-30T03:29:00.955Z,0
2017-10-30T03:30:02.562Z,0
2017-10-30T03:31:04.162Z,0
2017-10-30T03:32:05.762Z,0
2017-10-30T03:33:07.363Z,0
2017-10-30T03:34:08.968Z,0
2017-10-30T03:35:10.574Z,0
2017-10-30T03:36:12.179Z,0
2017-10-30T03:37:13.780Z,0
2017-10-30T03:38:15.384Z,0
2017-10-30T03:39:16.989Z,0
2017-10-30T03:40:18.593Z,0
2017-10-30T03:41:20.200Z,0
2017-10-30T03:42:21.803Z,0
2017-10-30T03:43:23.402Z,0
2017-10-30T03:44:25.004Z,0
2017-10-30T03:45:27.329Z,0
2017-10-30T03:46:28.936Z,0
2017-10-30T03:47:30.535Z,0
2017-10-30T03:48:32.146Z,0
2017-10-30T03:49:33.747Z,0
2017-10-30T03:50:35.366Z,0
2017-10-30T03:51:36.964Z,0
2017-10-30T03:52:38.566Z,0
2017-10-30T03:53:40.178Z,0
2017-10-30T03:54:41.783Z,0
2017-10-30T03:55:43.388Z,0
2017-10-30T03:56:44.992Z,0
2017-10-30T03:57:46.590Z,0
2017-10-30T03:58:48.370Z,0
2017-10-30T03:59:49.973Z,0
2017-10-30T04:00:51.581Z,0
2017-10-30T04:01:53.181Z,0
2017-10-30T04:02:54.790Z,0
2017-10-30T04:03:56.386Z,0
2017-10-30T04:04:57.993Z,0
2017-10-30T04:05:59.598Z,0
2017-10-30T04:07:01.199Z,0
2017-10-30T04:08:02.806Z,0
2017-10-30T04:09:04.405Z,0
2017-10-30T04:10:06.013Z,0
2017-10-30T04:11:07.612Z,0
2017-10-30T04:12:09.213Z,0
2017-10-30T04:13:10.813Z,0
2017-10-30T04:14:12.421Z,0
2017-10-30T04:15:14.023Z,0
2017-10-30T04:16:15.632Z,0
2017-10-30T04:17:17.231Z,0
2017-10-30T04:18:18.841Z,0
2017-10-30T04:19:20.434Z,0
2017-10-30T04:20:22.041Z,0
2017-10-30T04:21:23.640Z,0
2017-10-30T04:22:25.240Z,0
2017-10-30T04:23:26.847Z,0
2017-10-30T04:24:28.450Z,0
2017-10-30T04:25:30.058Z,0
2017-10-30T04:26:31.659Z,0
2017-10-30T04:27:33.266Z,0
2017-10-30T04:28:34.870Z,0
2017-10-30T04:29:36.475Z,0
2017-10-30T04:30:38.087Z,0
2017-10-30T04:31:39.689Z,0
2017-10-30T04:32:41.288Z,0
2017-10-30T04:33:42.896Z,0
2017-10-30T04:34:44.497Z,0
2017-10-30T04:35:46.100Z,0
2017-10-30T04:36:47.706Z,0
2017-10-30T04:37:49.306Z,0
2017-10-30T04:38:50.908Z,0
2017-10-30T04:39:52.515Z,0
2017-10-30T04:40:54.115Z,0
2017-10-30T04:41:55.721Z,0
2017-10-30T04:42:57.322Z,0
2017-10-30T04:43:58.924Z,0
2017-10-30T04:45:01.112Z,0
2017-10-30T04:46:02.720Z,0
2017-10-30T04:47:05.112Z,0
2017-10-30T04:48:06.717Z,0
2017-10-30T04:49:08.317Z,0
2017-10-30T04:50:09.923Z,0
2017-10-30T04:51:11.521Z,0
2017-10-30T04:52:13.129Z,0
2017-10-30T04:53:14.728Z,0
2017-10-30T04:54:16.337Z,0
2017-10-30T04:55:17.937Z,0
2017-10-30T04:56:19.542Z,0
2017-10-30T04:57:21.147Z,0
2017-10-30T04:58:22.751Z,0
2017-10-30T04:59:24.363Z,0
2017-10-30T05:00:25.965Z,0
2017-10-30T05:01:27.595Z,0
2017-10-30T05:02:29.185Z,0
2017-10-30T05:03:30.793Z,0
2017-10-30T05:04:32.390Z,0
2017-10-30T05:05:33.998Z,0
2017-10-30T05:06:35.600Z,0
2017-10-30T05:07:37.206Z,0
2017-10-30T05:08:38.807Z,0
2017-10-30T05:09:40.412Z,0
2017-10-30T05:10:42.019Z,0
2017-10-30T05:11:43.622Z,0
2017-10-30T05:12:45.225Z,0
2017-10-30T05:13:46.826Z,0
2017-10-30T05:14:48.432Z,0
2017-10-30T05:15:50.038Z,0
2017-10-30T05:16:51.637Z,0
2017-10-30T05:17:53.241Z,0
2017-10-30T05:18:54.838Z,0
2017-10-30T05:19:56.448Z,0
2017-10-30T05:20:58.053Z,0
2017-10-30T05:21:59.655Z,0
2017-10-30T05:23:01.254Z,0
2017-10-30T05:24:02.862Z,0
2017-10-30T05:25:04.466Z,0
2017-10-30T05:26:06.068Z,0
2017-10-30T05:27:07.669Z,0
2017-10-30T05:28:09.324Z,0
2017-10-30T05:29:11.300Z,0
2017-10-30T05:30:12.885Z,0
2017-10-30T05:31:14.487Z,0
2017-10-30T05:32:16.086Z,0
2017-10-30T05:33:17.693Z,0
2017-10-30T05:34:19.293Z,0
2017-10-30T05:35:20.902Z,0
2017-10-30T05:36:22.503Z,0
2017-10-30T05:37:24.104Z,0
2017-10-30T05:38:25.707Z,0
2017-10-30T05:39:27.312Z,0
2017-10-30T05:40:28.910Z,0
2017-10-30T05:41:30.516Z,0
2017-10-30T05:42:32.122Z,0
2017-10-30T05:43:33.733Z,0
2017-10-30T05:44:35.328Z,0
2017-10-30T05:45:36.936Z,0
2017-10-30T05:46:38.539Z,0
2017-10-30T05:47:40.144Z,0
2017-10-30T05:48:41.742Z,0
2017-10-30T05:49:43.352Z,0
2017-10-30T05:50:44.953Z,0
2017-10-30T05:51:46.564Z,0
2017-10-30T05:52:48.160Z,0
2017-10-30T05:53:49.759Z,0
2017-10-30T05:54:51.368Z,0
2017-10-30T05:55:52.972Z,0
2017-10-30T05:56:54.574Z,0
2017-10-30T05:57:56.177Z,0
2017-10-30T05:58:57.782Z,0
2017-10-30T05:59:59.381Z,0
2017-10-30T06:01:00.989Z,0
2017-10-30T06:02:02.589Z,0
2017-10-30T06:03:04.196Z,0
2017-10-30T06:04:05.797Z,0
2017-10-30T06:05:07.408Z,0
2017-10-30T06:06:09.007Z,0
2017-10-30T06:07:10.613Z,0
2017-10-30T06:08:12.220Z,0
2017-10-30T06:09:13.821Z,0
2017-10-30T06:10:15.431Z,0
2017-10-30T06:11:17.030Z,0
2017-10-30T06:12:18.641Z,5
2017-10-30T06:13:20.240Z,5
2017-10-30T06:14:21.848Z,5
2017-10-30T06:15:23.448Z,5
2017-10-30T06:16:25.066Z,5
2017-10-30T06:17:26.665Z,11
2017-10-30T06:18:28.272Z,11
2017-10-30T06:19:29.883Z,11
2017-10-30T06:20:31.490Z,11
2017-10-30T06:21:33.097Z,11
2017-10-30T06:22:34.698Z,16
2017-10-30T06:23:36.306Z,16
2017-10-30T06:24:37.909Z,16
2017-10-30T06:25:39.521Z,16
2017-10-30T06:26:41.126Z,22
2017-10-30T06:27:42.735Z,22
2017-10-30T06:28:44.337Z,22
2017-10-30T06:29:45.946Z,28
2017-10-30T06:30:47.551Z,28
2017-10-30T06:31:49.160Z,28
2017-10-30T06:32:50.765Z,28
2017-10-30T06:33:52.377Z,33
2017-10-30T06:34:53.984Z,33
2017-10-30T06:35:55.586Z,33
2017-10-30T06:36:57.193Z,33
2017-10-30T06:37:58.810Z,33
2017-10-30T06:39:00.414Z,39
2017-10-30T06:40:02.017Z,39
2017-10-30T06:41:03.628Z,39
2017-10-30T06:42:05.231Z,39
2017-10-30T06:43:06.834Z,39
2017-10-30T06:44:08.444Z,39
2017-10-30T06:45:10.049Z,33
2017-10-30T06:46:11.657Z,33
2017-10-30T06:47:13.261Z,33
2017-10-30T06:48:14.875Z,39
2017-10-30T06:49:16.489Z,45
2017-10-30T06:50:18.089Z,45
2017-10-30T06:51:19.700Z,50
2017-10-30T06:52:21.303Z,56
2017-10-30T06:53:22.913Z,61
2017-10-30T06:54:24.517Z,67
2017-10-30T06:55:26.132Z,78
2017-10-30T06:56:27.737Z,84
2017-10-30T06:57:29.350Z,90
2017-10-30T06:58:30.952Z,90
2017-10-30T06:59:32.565Z,90
2017-10-30T07:00:34.169Z,95
2017-10-30T07:01:35.782Z,112
2017-10-30T07:02:37.389Z,129
2017-10-30T07:03:38.999Z,123
2017-10-30T07:04:40.605Z,118
2017-10-30T07:05:42.215Z,118
2017-10-30T07:06:43.825Z,112
2017-10-30T07:07:45.431Z,118
2017-10-30T07:08:47.044Z,123
2017-10-30T07:09:48.651Z,135
2017-10-30T07:10:50.261Z,146
2017-10-30T07:11:51.863Z,163
2017-10-30T07:12:53.476Z,163
2017-10-30T07:13:55.081Z,180
2017-10-30T07:14:56.695Z,208
2017-10-30T07:15:58.301Z,225
2017-10-30T07:16:59.914Z,236
2017-10-30T07:18:01.530Z,241
2017-10-30T07:19:03.129Z,247
2017-10-30T07:20:04.733Z,258
2017-10-30T07:21:06.345Z,270
2017-10-30T07:22:07.963Z,281
2017-10-30T07:23:09.566Z,281
2017-10-30T07:24:11.174Z,275
2017-10-30T07:25:12.784Z,253
2017-10-30T07:26:14.392Z,230
2017-10-30T07:27:15.999Z,213
2017-10-30T07:28:17.605Z,208
2017-10-30T07:29:19.222Z,202
2017-10-30T07:30:20.834Z,202
2017-10-30T07:31:22.445Z,196
2017-10-30T07:32:24.051Z,196
2017-10-30T07:33:25.663Z,196
2017-10-30T07:34:27.272Z,196
2017-10-30T07:35:28.878Z,196
2017-10-30T07:36:30.486Z,191
2017-10-30T07:37:32.102Z,213
2017-10-30T07:38:33.710Z,230
2017-10-30T07:39:35.324Z,230
2017-10-30T07:40:36.935Z,230
2017-10-30T07:41:38.541Z,236
2017-10-30T07:42:40.150Z,241
2017-10-30T07:43:41.764Z,241
2017-10-30T07:44:43.377Z,247
2017-10-30T07:45:44.985Z,258
2017-10-30T07:46:46.592Z,258
2017-10-30T07:47:48.204Z,270
2017-10-30T07:48:49.815Z,275
2017-10-30T07:49:51.419Z,292
2017-10-30T07:50:53.028Z,298
2017-10-30T07:51:54.642Z,292
2017-10-30T07:52:56.255Z,298
2017-10-30T07:53:57.858Z,326
2017-10-30T07:54:59.465Z,354
2017-10-30T07:56:01.078Z,382
2017-10-30T07:57:02.687Z,399
2017-10-30T07:58:04.296Z,399
2017-10-30T07:59:05.906Z,421
2017-10-30T08:00:07.523Z,455
2017-10-30T08:01:09.133Z,500
2017-10-30T08:02:10.742Z,517
2017-10-30T08:03:12.356Z,517
2017-10-30T08:04:13.962Z,551
2017-10-30T08:05:15.580Z,562
2017-10-30T08:06:17.191Z,562
2017-10-30T08:07:18.803Z,658
2017-10-30T08:08:20.417Z,776
2017-10-30T08:09:22.026Z,517
2017-10-30T08:10:23.638Z,405
2017-10-30T08:11:25.252Z,421
2017-10-30T08:12:26.867Z,472
2017-10-30T08:13:28.480Z,472
2017-10-30T08:14:30.093Z,455
2017-10-30T08:15:31.707Z,461
2017-10-30T08:16:33.326Z,472
2017-10-30T08:17:34.935Z,500
2017-10-30T08:18:36.551Z,528
2017-10-30T08:19:38.167Z,534
2017-10-30T08:20:39.785Z,596
2017-10-30T08:21:41.395Z,675
2017-10-30T08:22:43.013Z,804
2017-10-30T08:23:44.629Z,675
2017-10-30T08:24:46.235Z,663
2017-10-30T08:25:47.851Z,613
2017-10-30T08:26:49.467Z,528
2017-10-30T08:27:51.084Z,523
2017-10-30T08:28:52.695Z,860
2017-10-30T08:29:54.312Z,618
2017-10-30T08:30:55.921Z,652
2017-10-30T08:31:57.539Z,646
2017-10-30T08:32:59.151Z,613
2017-10-30T08:34:00.768Z,607
2017-10-30T08:35:02.379Z,613
2017-10-30T08:36:03.997Z,545
2017-10-30T08:37:05.610Z,528
2017-10-30T08:38:07.222Z,579
2017-10-30T08:39:08.832Z,624
2017-10-30T08:40:10.444Z,635
2017-10-30T08:41:12.059Z,641
2017-10-30T08:42:13.671Z,646
2017-10-30T08:43:15.291Z,652
2017-10-30T08:44:16.901Z,708
2017-10-30T08:45:18.515Z,607
2017-10-30T08:46:20.126Z,562
2017-10-30T08:47:21.744Z,545
2017-10-30T08:48:23.360Z,630
2017-10-30T08:49:24.974Z,635
2017-10-30T08:50:26.587Z,675
2017-10-30T08:51:28.207Z,708
2017-10-30T08:52:29.827Z,708
2017-10-30T08:53:31.435Z,663
2017-10-30T08:54:33.054Z,613
2017-10-30T08:55:34.671Z,618
2017-10-30T08:56:36.286Z,585
2017-10-30T08:57:37.905Z,545
2017-10-30T08:58:39.521Z,500
2017-10-30T08:59:41.130Z,495
2017-10-30T09:00:42.747Z,483
2017-10-30T09:01:44.374Z,466
2017-10-30T09:02:45.981Z,472
2017-10-30T09:03:47.593Z,489
2017-10-30T09:04:49.212Z,495
2017-10-30T09:05:50.832Z,461
2017-10-30T09:06:52.441Z,461
2017-10-30T09:07:54.056Z,478
2017-10-30T09:08:55.675Z,495
2017-10-30T09:09:57.290Z,517
2017-10-30T09:10:58.906Z,478
2017-10-30T09:12:00.525Z,590
2017-10-30T09:13:02.135Z,646
2017-10-30T09:14:03.754Z,736
2017-10-30T09:15:05.366Z,798
2017-10-30T09:16:06.979Z,883
2017-10-30T09:17:08.596Z,978
2017-10-30T09:18:10.215Z,753
2017-10-30T09:19:11.829Z,742
2017-10-30T09:20:13.448Z,731
2017-10-30T09:21:15.057Z,759
2017-10-30T09:22:16.732Z,776
2017-10-30T09:23:18.349Z,787
2017-10-30T09:24:19.964Z,793
2017-10-30T09:25:21.578Z,781
2017-10-30T09:26:23.200Z,753
2017-10-30T09:27:24.810Z,776
2017-10-30T09:28:26.429Z,804
2017-10-30T09:29:28.043Z,810
2017-10-30T09:30:29.657Z,855
2017-10-30T09:31:31.277Z,1338
2017-10-30T09:32:32.897Z,1113
2017-10-30T09:33:34.520Z,1006
2017-10-30T09:34:36.141Z,1968
2017-10-30T09:35:37.752Z,1940
2017-10-30T09:36:39.372Z,2115
2017-10-30T09:37:40.985Z,2131
2017-10-30T09:38:42.608Z,2373
2017-10-30T09:39:44.228Z,2756
2017-10-30T09:40:45.843Z,2671
2017-10-30T09:41:47.456Z,1833
2017-10-30T09:42:49.077Z,1496
2017-10-30T09:43:50.691Z,1366
2017-10-30T09:44:52.310Z,1378
2017-10-30T09:45:53.925Z,2098
2017-10-30T09:46:55.543Z,1614
2017-10-30T09:47:57.163Z,1327
2017-10-30T09:48:58.784Z,1946
2017-10-30T09:50:00.401Z,2323
2017-10-30T09:51:02.016Z,2238
2017-10-30T09:52:03.632Z,1884
2017-10-30T09:53:05.263Z,1777
2017-10-30T09:54:06.880Z,1912
2017-10-30T09:55:08.497Z,1631
2017-10-30T09:56:10.120Z,2109
2017-10-30T09:57:11.734Z,2694
2017-10-30T09:58:13.357Z,2941
2017-10-30T09:59:14.973Z,2565
2017-10-30T10:00:16.595Z,2165
2017-10-30T10:01:18.219Z,2385
2017-10-30T10:02:19.841Z,2846
2017-10-30T10:03:21.461Z,2171
2017-10-30T10:04:23.088Z,1991
2017-10-30T10:05:24.701Z,1327
2017-10-30T10:06:26.325Z,1231
2017-10-30T10:07:27.939Z,1040
2017-10-30T10:08:29.557Z,939
2017-10-30T10:09:31.184Z,765
2017-10-30T10:10:32.804Z,613
2017-10-30T10:11:34.416Z,540
2017-10-30T10:12:36.033Z,528
2017-10-30T10:13:37.656Z,534
2017-10-30T10:14:39.276Z,562
2017-10-30T10:15:40.893Z,585
2017-10-30T10:16:42.511Z,607
2017-10-30T10:17:44.133Z,613
2017-10-30T10:18:45.750Z,585
2017-10-30T10:19:47.368Z,534
2017-10-30T10:20:48.979Z,573
2017-10-30T10:21:50.601Z,573
2017-10-30T10:22:52.215Z,562
2017-10-30T10:23:53.840Z,540
2017-10-30T10:24:55.456Z,545
2017-10-30T10:25:57.070Z,568
2017-10-30T10:26:58.685Z,601
2017-10-30T10:28:00.302Z,635
2017-10-30T10:29:01.923Z,703
2017-10-30T10:30:03.538Z,748
2017-10-30T10:31:05.158Z,759
2017-10-30T10:32:06.776Z,804
2017-10-30T10:33:08.396Z,871
2017-10-30T10:34:10.006Z,939
2017-10-30T10:35:11.621Z,1243
2017-10-30T10:36:13.245Z,922
2017-10-30T10:37:14.864Z,883
2017-10-30T10:38:16.493Z,922
2017-10-30T10:39:18.101Z,956
2017-10-30T10:40:19.712Z,990
2017-10-30T10:41:21.334Z,1080
2017-10-30T10:42:22.950Z,1029
2017-10-30T10:43:24.572Z,1018
2017-10-30T10:44:26.184Z,793
2017-10-30T10:45:27.805Z,658
2017-10-30T10:46:29.418Z,585
2017-10-30T10:47:31.040Z,540
2017-10-30T10:48:32.651Z,545
2017-10-30T10:49:34.267Z,607
2017-10-30T10:50:35.881Z,590
2017-10-30T10:51:37.497Z,618
2017-10-30T10:52:39.120Z,866
2017-10-30T10:53:40.734Z,776
2017-10-30T10:54:42.347Z,855
2017-10-30T10:55:43.960Z,961
2017-10-30T10:56:45.584Z,1181
2017-10-30T10:57:47.199Z,1665
2017-10-30T10:58:48.822Z,1929
2017-10-30T10:59:50.438Z,1946
2017-10-30T11:00:52.061Z,883
2017-10-30T11:01:53.670Z,821
2017-10-30T11:02:55.292Z,798
2017-10-30T11:03:56.904Z,883
2017-10-30T11:04:58.524Z,781
2017-10-30T11:06:00.139Z,849
2017-10-30T11:07:01.762Z,646
2017-10-30T11:08:03.371Z,585
2017-10-30T11:09:04.990Z,630
2017-10-30T11:10:06.601Z,517
2017-10-30T11:11:08.222Z,466
2017-10-30T11:12:09.833Z,466
2017-10-30T11:13:11.451Z,478
2017-10-30T11:14:13.067Z,483
2017-10-30T11:15:14.683Z,556
2017-10-30T11:16:16.298Z,590
2017-10-30T11:17:17.914Z,646
2017-10-30T11:18:19.525Z,725
2017-10-30T11:19:21.145Z,900
2017-10-30T11:20:22.763Z,810
2017-10-30T11:21:24.379Z,798
2017-10-30T11:22:25.991Z,821
2017-10-30T11:23:27.612Z,787
2017-10-30T11:24:29.231Z,753
2017-10-30T11:25:30.840Z,781
2017-10-30T11:26:32.459Z,776
2017-10-30T11:27:34.077Z,675
2017-10-30T11:28:36.225Z,506
2017-10-30T11:29:37.832Z,427
2017-10-30T11:30:39.448Z,376
2017-10-30T11:31:41.072Z,360
2017-10-30T11:32:42.687Z,354
2017-10-30T11:33:44.302Z,326
2017-10-30T11:34:45.917Z,309
2017-10-30T11:35:47.539Z,298
2017-10-30T11:36:49.150Z,292
2017-10-30T11:37:50.767Z,298
2017-10-30T11:38:52.384Z,348
2017-10-30T11:39:53.996Z,444
2017-10-30T11:40:55.610Z,556
2017-10-30T11:41:57.230Z,646
2017-10-30T11:42:58.851Z,725
2017-10-30T11:44:00.465Z,776
2017-10-30T11:45:02.086Z,787
2017-10-30T11:46:03.696Z,821
2017-10-30T11:47:05.312Z,832
2017-10-30T11:48:06.935Z,804
2017-10-30T11:49:08.551Z,810
2017-10-30T11:50:10.168Z,742
2017-10-30T11:51:11.779Z,720
2017-10-30T11:52:13.400Z,911
2017-10-30T11:53:15.016Z,967
2017-10-30T11:54:16.630Z,810
2017-10-30T11:55:18.252Z,866
2017-10-30T11:56:19.866Z,1321
2017-10-30T11:57:21.491Z,1226
2017-10-30T11:58:23.105Z,1006
2017-10-30T11:59:24.731Z,1091
2017-10-30T12:00:26.336Z,1642
2017-10-30T12:01:27.962Z,1788
2017-10-30T12:02:29.574Z,1794
2017-10-30T12:03:31.193Z,1940
2017-10-30T12:04:32.810Z,838
2017-10-30T12:05:34.430Z,1749
2017-10-30T12:06:36.043Z,1299
2017-10-30T12:07:37.671Z,1102
2017-10-30T12:08:39.277Z,1631
2017-10-30T12:09:40.894Z,1603
2017-10-30T12:10:42.515Z,1636
2017-10-30T12:11:44.133Z,1046
2017-10-30T12:12:45.752Z,703
2017-10-30T12:13:47.360Z,736
2017-10-30T12:14:48.979Z,781
2017-10-30T12:15:50.593Z,568
2017-10-30T12:16:52.210Z,871
2017-10-30T12:17:53.824Z,590
2017-10-30T12:18:55.445Z,399
2017-10-30T12:19:57.055Z,399
2017-10-30T12:20:58.674Z,444
2017-10-30T12:22:00.289Z,421
2017-10-30T12:23:01.907Z,405
2017-10-30T12:24:03.528Z,360
2017-10-30T12:25:05.137Z,337
2017-10-30T12:26:06.754Z,691
2017-10-30T12:27:08.367Z,843
2017-10-30T12:28:09.990Z,815
2017-10-30T12:29:11.624Z,748
2017-10-30T12:30:13.220Z,573
2017-10-30T12:31:14.833Z,596
2017-10-30T12:32:16.447Z,731
2017-10-30T12:33:18.066Z,742
2017-10-30T12:34:19.689Z,714
2017-10-30T12:35:21.297Z,646
2017-10-30T12:36:22.912Z,540
2017-10-30T12:37:24.533Z,466
2017-10-30T12:38:26.151Z,466
2017-10-30T12:39:27.761Z,517
2017-10-30T12:40:29.381Z,540
2017-10-30T12:41:30.995Z,511
2017-10-30T12:42:32.613Z,500
2017-10-30T12:43:34.223Z,500
2017-10-30T12:44:35.836Z,483
2017-10-30T12:45:37.454Z,466
2017-10-30T12:46:39.071Z,495
2017-10-30T12:47:40.691Z,483
2017-10-30T12:48:42.306Z,506
2017-10-30T12:49:43.919Z,551
2017-10-30T12:50:45.530Z,585
2017-10-30T12:51:47.148Z,534
2017-10-30T12:52:48.765Z,478
2017-10-30T12:53:50.377Z,489
2017-10-30T12:54:51.993Z,500
2017-10-30T12:55:53.609Z,495
2017-10-30T12:56:55.220Z,506
2017-10-30T12:57:56.838Z,528
2017-10-30T12:58:58.456Z,534
2017-10-30T13:00:00.069Z,523
2017-10-30T13:01:01.682Z,450
2017-10-30T13:02:03.296Z,427
2017-10-30T13:03:04.912Z,528
2017-10-30T13:04:06.526Z,556
2017-10-30T13:05:08.137Z,489
2017-10-30T13:06:09.756Z,556
2017-10-30T13:07:11.368Z,573
2017-10-30T13:08:12.986Z,669
2017-10-30T13:09:14.600Z,596
2017-10-30T13:10:16.216Z,568
2017-10-30T13:11:17.828Z,613
2017-10-30T13:12:19.445Z,646
2017-10-30T13:13:21.059Z,601
2017-10-30T13:14:22.673Z,523
2017-10-30T13:15:24.285Z,455
2017-10-30T13:16:25.908Z,320
2017-10-30T13:17:27.534Z,303
2017-10-30T13:18:29.138Z,258
2017-10-30T13:19:30.747Z,258
2017-10-30T13:20:32.360Z,236
2017-10-30T13:21:33.979Z,208
2017-10-30T13:22:35.597Z,185
2017-10-30T13:23:37.216Z,157
2017-10-30T13:24:38.826Z,140
2017-10-30T13:25:40.441Z,135
2017-10-30T13:26:42.052Z,135
2017-10-30T13:27:43.670Z,140
2017-10-30T13:28:45.283Z,151
2017-10-30T13:29:46.899Z,168
2017-10-30T13:30:48.513Z,202
2017-10-30T13:31:50.126Z,225
2017-10-30T13:32:51.742Z,292
2017-10-30T13:33:53.360Z,320
2017-10-30T13:34:54.969Z,337
2017-10-30T13:35:56.585Z,348
2017-10-30T13:36:58.195Z,371
2017-10-30T13:37:59.806Z,393
2017-10-30T13:39:01.419Z,399
2017-10-30T13:40:03.031Z,410
2017-10-30T13:41:04.646Z,438
2017-10-30T13:42:06.257Z,455
2017-10-30T13:43:07.879Z,455
2017-10-30T13:44:09.490Z,433
2017-10-30T13:45:11.110Z,416
2017-10-30T13:46:12.719Z,405
2017-10-30T13:47:14.334Z,421
2017-10-30T13:48:15.953Z,371
2017-10-30T13:49:17.561Z,348
2017-10-30T13:50:19.180Z,315
2017-10-30T13:51:20.814Z,286
2017-10-30T13:52:22.417Z,270
2017-10-30T13:53:24.030Z,247
2017-10-30T13:54:25.647Z,219
2017-10-30T13:55:27.258Z,196
2017-10-30T13:56:28.878Z,185
2017-10-30T13:57:30.496Z,174
2017-10-30T13:58:32.113Z,168
2017-10-30T13:59:33.725Z,168
2017-10-30T14:00:35.337Z,163
2017-10-30T14:01:36.953Z,168
2017-10-30T14:02:38.570Z,174
2017-10-30T14:03:40.183Z,180
2017-10-30T14:04:41.804Z,191
2017-10-30T14:05:43.414Z,191
2017-10-30T14:06:45.030Z,253
2017-10-30T14:07:46.643Z,275
2017-10-30T14:08:48.258Z,292
2017-10-30T14:09:50.113Z,292
2017-10-30T14:10:51.728Z,303
2017-10-30T14:11:53.349Z,303
2017-10-30T14:12:54.966Z,298
2017-10-30T14:13:56.578Z,303
2017-10-30T14:14:58.190Z,309
2017-10-30T14:15:59.805Z,326
2017-10-30T14:17:01.419Z,360
2017-10-30T14:18:03.029Z,348
2017-10-30T14:19:04.647Z,320
2017-10-30T14:20:06.261Z,281
2017-10-30T14:21:07.872Z,270
2017-10-30T14:22:09.491Z,281
2017-10-30T14:23:11.104Z,258
2017-10-30T14:24:12.718Z,241
2017-10-30T14:25:14.329Z,230
2017-10-30T14:26:15.940Z,213
2017-10-30T14:27:17.558Z,191
2017-10-30T14:28:19.169Z,174
2017-10-30T14:29:20.788Z,157
2017-10-30T14:30:22.397Z,129
2017-10-30T14:31:24.009Z,112
2017-10-30T14:32:25.627Z,90
2017-10-30T14:33:27.240Z,78